Time;durP1;ratioP1;P1;durP2;ratioP2;P2;SDS_P1;SDS_P2;PMS_P1;PMS_P2;Temp;Humidity;BMP_temperature;BMP_pressure;BME280_temperature;BME280_humidity;BME280_pressure;Samples;Min_cycle;Max_cycle;Signal;HPM_P1;HPM_P2
2022/01/20 00:01:14;;;;;;;;;12.67;12.00;;;;;21.46;47.19;99825.73;112153;1247;22017;-74
2022/01/20 00:03:42;;;;;;;;;14.33;13.33;;;;;21.46;47.24;99827.15;112165;1247;20642;-74
2022/01/20 00:09:17;;;;;;;;;14.00;13.00;;;;;21.47;47.20;99820.73;112184;1247;19720;-76
2022/01/20 00:23:16;;;;;;;;;14.00;12.33;;;;;21.43;47.19;99811.55;111914;1248;19171;-74
2022/01/20 00:25:55;;;;;;;;;16.67;13.67;;;;;21.43;46.98;99808.65;112199;1248;20301;-75
2022/01/20 00:28:27;;;;;;;;;12.00;12.00;;;;;21.44;46.96;99801.60;112184;1248;18811;-74
2022/01/20 00:31:02;;;;;;;;;13.00;12.33;;;;;21.43;47.23;99792.85;112208;1248;20450;-75
2022/01/20 00:33:33;;;;;;;;;12.67;12.67;;;;;21.40;47.27;99782.89;112163;1248;20122;-76
2022/01/20 00:38:43;;;;;;;;;13.00;12.33;;;;;21.44;47.03;99782.77;112169;1248;22943;-76
2022/01/20 00:41:14;;;;;;;;;12.00;10.00;;;;;21.44;47.13;99782.73;112142;1248;22028;-74
2022/01/20 00:43:40;;;;;;;;;13.33;12.00;;;;;21.44;47.03;99777.54;112155;1248;19293;-73
2022/01/20 00:46:06;;;;;;;;;12.00;12.00;;;;;21.45;47.00;99772.63;112164;1248;19194;-73
2022/01/20 00:48:32;;;;;;;;;13.00;12.00;;;;;21.42;46.90;99765.33;112309;1243;22218;-74
2022/01/20 00:50:58;;;;;;;;;11.00;10.50;;;;;21.45;46.98;99768.56;112964;1241;18377;-74
2022/01/20 00:53:24;;;;;;;;;13.50;12.00;;;;;21.45;46.89;99766.92;112960;1242;18667;-74
2022/01/20 00:55:50;;;;;;;;;16.00;13.00;;;;;21.44;46.98;99763.48;112969;1242;22947;-74
2022/01/20 00:58:16;;;;;;;;;13.00;12.50;;;;;21.44;46.98;99760.55;112887;1242;22824;-73
2022/01/20 01:00:41;;;;;;;;;10.00;10.00;;;;;21.44;46.88;99755.72;112945;1242;18563;-73
2022/01/20 01:03:07;;;;;;;;;12.00;12.00;;;;;21.44;46.77;99753.80;113001;1241;19045;-74
2022/01/20 01:05:38;;;;;;;;;13.00;12.00;;;;;21.44;47.01;99752.16;113031;1242;18417;-73
2022/01/20 01:08:06;;;;;;;;;13.00;12.00;;;;;21.44;46.75;99745.32;113042;1242;20910;-73
2022/01/20 01:10:33;;;;;;;;;13.33;13.33;;;;;21.43;47.03;99740.34;113003;1242;19655;-73
2022/01/20 01:13:03;;;;;;;;;14.00;12.33;;;;;21.44;46.86;99737.89;112975;1242;21574;-73
2022/01/20 01:15:33;;;;;;;;;12.00;11.33;;;;;21.44;46.87;99734.84;112908;1241;19043;-73
2022/01/20 01:21:14;;;;;;;;;13.33;12.67;;;;;21.43;46.63;99728.97;112985;1242;18762;-74
2022/01/20 01:23:40;;;;;;;;;10.67;10.00;;;;;21.43;46.83;99724.60;112958;1242;20408;-72
2022/01/20 01:26:05;;;;;;;;;14.00;12.50;;;;;21.42;46.79;99717.73;112947;1241;19197;-73
2022/01/20 01:28:32;;;;;;;;;10.00;9.50;;;;;21.42;46.56;99711.23;113001;1242;18556;-73
2022/01/20 01:31:20;;;;;;;;;12.00;11.33;;;;;21.42;46.69;99706.54;112956;1242;18578;-74
2022/01/20 01:33:53;;;;;;;;;13.33;13.00;;;;;21.42;46.81;99702.17;112945;1242;20912;-73
2022/01/20 01:36:21;;;;;;;;;11.33;10.00;;;;;21.41;46.76;99694.45;112987;1242;19142;-75
2022/01/20 01:38:47;;;;;;;;;16.33;13.00;;;;;21.41;46.63;99689.02;112944;1241;19225;-75
2022/01/20 01:41:15;;;;;;;;;13.00;12.00;;;;;21.42;46.72;99685.86;112954;1241;22858;-74
2022/01/20 01:43:42;;;;;;;;;13.00;12.00;;;;;21.42;46.65;99679.11;113042;1242;18796;-74
2022/01/20 01:46:08;;;;;;;;;10.00;10.00;;;;;21.41;46.59;99673.58;113022;1242;18732;-74
2022/01/20 01:48:34;;;;;;;;;12.00;10.00;;;;;21.41;46.55;99671.05;112975;1242;23888;-73
2022/01/20 01:51:00;;;;;;;;;13.67;12.67;;;;;21.41;46.70;99669.80;112987;1241;18768;-73
2022/01/20 01:53:26;;;;;;;;;9.00;9.00;;;;;21.41;46.47;99663.93;112947;1242;18614;-73
2022/01/20 01:55:52;;;;;;;;;11.00;11.00;;;;;21.41;46.64;99660.65;113002;1242;19358;-73
2022/01/20 01:58:17;;;;;;;;;13.50;12.00;;;;;21.41;46.38;99645.98;113010;1242;19802;-73
2022/01/20 02:00:43;;;;;;;;;12.00;10.00;;;;;21.40;46.54;99647.19;112947;1242;18723;-74
2022/01/20 02:03:09;;;;;;;;;14.00;13.00;;;;;21.41;46.46;99648.20;112961;1242;19341;-74
2022/01/20 02:05:45;;;;;;;;;13.00;12.00;;;;;21.40;46.49;99639.55;112986;1242;18987;-73
2022/01/20 02:08:26;;;;;;;;;16.00;12.33;;;;;21.41;46.39;99636.96;112937;1242;21921;-72
2022/01/20 02:19:05;;;;;;;;;12.67;12.00;;;;;21.41;46.63;99637.24;113002;1242;19908;-74
2022/01/20 02:21:31;;;;;;;;;11.00;9.00;;;;;21.38;46.40;99625.15;113005;1242;18817;-74
2022/01/20 02:23:57;;;;;;;;;12.50;11.00;;;;;21.40;46.39;99622.85;112989;1242;18479;-74
2022/01/20 02:26:23;;;;;;;;;13.00;13.00;;;;;21.38;46.41;99618.16;112986;1242;20173;-74
2022/01/20 02:28:49;;;;;;;;;12.00;10.00;;;;;21.39;46.34;99613.29;113024;1242;18523;-74
2022/01/20 02:31:15;;;;;;;;;12.00;12.00;;;;;21.40;46.48;99616.02;112970;1242;18515;-73
2022/01/20 02:33:40;;;;;;;;;9.00;9.00;;;;;21.39;46.27;99610.15;112955;1242;19889;-72
2022/01/20 02:36:08;;;;;;;;;12.00;10.00;;;;;21.39;46.50;99603.40;112958;1241;20896;-73
2022/01/20 02:38:38;;;;;;;;;10.00;10.00;;;;;21.39;46.35;99600.33;112966;1242;18702;-75
2022/01/20 02:46:47;;;;;;;;;14.00;10.00;;;;;21.38;46.25;99594.43;112192;1248;18664;-73
2022/01/20 02:49:13;;;;;;;;;10.00;9.00;;;;;21.38;46.37;99592.59;112219;1247;19859;-73
2022/01/20 02:51:39;;;;;;;;;10.00;9.50;;;;;21.38;46.32;99590.61;112154;1248;18648;-71
2022/01/20 02:54:05;;;;;;;;;8.50;8.50;;;;;21.37;46.29;99590.36;112206;1247;18832;-72
2022/01/20 02:56:31;;;;;;;;;9.00;9.00;;;;;21.34;46.46;99580.04;112159;1247;19885;-73
2022/01/20 02:58:57;;;;;;;;;9.00;8.67;;;;;21.37;46.50;99585.45;112214;1248;21685;-75
2022/01/20 03:01:22;;;;;;;;;12.00;10.00;;;;;21.37;46.25;99583.32;112162;1248;18639;-76
2022/01/20 03:03:49;;;;;;;;;10.00;10.00;;;;;21.37;46.13;99587.67;112173;1247;22150;-75
2022/01/20 03:06:15;;;;;;;;;12.33;12.00;;;;;21.38;46.37;99592.12;112174;1247;19288;-75
2022/01/20 03:08:41;;;;;;;;;10.00;9.00;;;;;21.38;46.28;99601.14;112140;1248;18726;-74
2022/01/20 03:11:07;;;;;;;;;12.00;9.50;;;;;21.38;46.30;99602.56;112176;1247;19199;-74
2022/01/20 03:13:33;;;;;;;;;9.00;9.00;;;;;21.37;46.20;99597.79;112164;1248;18787;-74
2022/01/20 03:15:59;;;;;;;;;9.00;9.00;;;;;21.37;46.28;99588.77;112746;1242;19933;-74
2022/01/20 03:18:25;;;;;;;;;10.00;10.00;;;;;21.37;46.31;99582.31;113011;1242;19944;-74
2022/01/20 03:20:51;;;;;;;;;11.00;10.00;;;;;21.37;46.36;99583.99;112982;1241;22937;-75
2022/01/20 03:23:16;;;;;;;;;12.00;10.00;;;;;21.37;46.31;99585.63;112951;1242;18628;-74
2022/01/20 03:25:42;;;;;;;;;10.00;10.00;;;;;21.38;46.30;99595.35;112971;1242;19729;-74
2022/01/20 03:28:08;;;;;;;;;9.00;9.00;;;;;21.38;46.29;99590.07;112960;1242;20432;-74
2022/01/20 03:30:34;;;;;;;;;9.00;9.00;;;;;21.37;46.07;99592.13;112983;1242;18395;-73
2022/01/20 03:33:00;;;;;;;;;10.00;9.00;;;;;21.38;46.22;99589.90;112970;1242;20815;-73
2022/01/20 03:35:26;;;;;;;;;8.00;7.00;;;;;21.38;46.02;99591.58;112987;1242;22101;-74
2022/01/20 03:37:52;;;;;;;;;9.00;9.00;;;;;21.38;46.08;99594.10;112997;1242;18623;-73
2022/01/20 03:40:20;;;;;;;;;8.00;8.00;;;;;21.37;46.01;99593.64;113010;1242;19385;-73
2022/01/20 03:42:46;;;;;;;;;9.00;8.50;;;;;21.37;46.15;99598.09;112996;1242;18878;-73
2022/01/20 03:45:12;;;;;;;;;9.00;8.00;;;;;21.37;46.26;99600.93;112968;1242;18982;-73
2022/01/20 03:47:38;;;;;;;;;9.00;9.00;;;;;21.37;46.11;99602.73;113001;1241;19288;-73
2022/01/20 03:50:10;;;;;;;;;9.00;8.00;;;;;21.37;46.27;99603.27;112976;1242;18215;-73
2022/01/20 03:52:36;;;;;;;;;11.00;10.00;;;;;21.37;46.14;99611.61;112981;1242;19085;-73
2022/01/20 03:55:02;;;;;;;;;8.50;8.50;;;;;21.37;46.09;99613.25;113021;1241;23582;-73
2022/01/20 03:57:28;;;;;;;;;8.00;8.00;;;;;21.37;46.18;99624.83;113002;1242;20218;-74
2022/01/20 03:59:54;;;;;;;;;9.00;8.00;;;;;21.36;46.23;99621.19;112987;1241;19125;-73
2022/01/20 04:02:20;;;;;;;;;9.00;9.00;;;;;21.38;46.07;99619.72;112957;1242;22487;-73
2022/01/20 04:04:46;;;;;;;;;9.50;8.50;;;;;21.37;46.09;99615.86;112990;1242;19721;-73
2022/01/20 04:07:12;;;;;;;;;8.00;8.00;;;;;21.36;46.16;99617.04;113027;1241;19250;-73
2022/01/20 04:09:38;;;;;;;;;7.00;6.00;;;;;21.37;46.06;99616.91;113020;1242;19208;-76
2022/01/20 04:12:03;;;;;;;;;9.00;9.00;;;;;21.34;46.18;99615.39;112966;1242;18681;-74
2022/01/20 04:14:32;;;;;;;;;9.00;8.00;;;;;21.34;46.04;99615.42;112994;1242;18947;-73
2022/01/20 04:17:03;;;;;;;;;8.00;8.00;;;;;21.35;45.93;99617.50;113054;1242;19540;-74
2022/01/20 04:19:30;;;;;;;;;9.00;8.33;;;;;21.35;46.04;99617.52;112984;1242;18492;-74
2022/01/20 04:21:56;;;;;;;;;8.00;8.00;;;;;21.34;46.00;99610.14;112976;1242;18571;-74
2022/01/20 04:24:22;;;;;;;;;10.00;9.00;;;;;21.34;45.86;99611.10;113017;1242;19224;-73
2022/01/20 04:26:48;;;;;;;;;5.50;5.50;;;;;21.34;45.88;99612.52;112994;1241;18250;-74
2022/01/20 04:29:14;;;;;;;;;8.00;8.00;;;;;21.33;46.03;99610.80;113026;1242;20050;-74
2022/01/20 04:31:40;;;;;;;;;6.00;6.00;;;;;21.33;46.00;99609.52;112999;1242;19165;-73
2022/01/20 04:34:06;;;;;;;;;8.00;8.00;;;;;21.33;45.90;99607.91;112985;1241;19341;-73
2022/01/20 04:36:33;;;;;;;;;9.50;8.50;;;;;21.34;45.86;99603.52;112945;1242;18798;-73
2022/01/20 04:39:00;;;;;;;;;8.33;8.00;;;;;21.33;45.97;99598.53;112955;1241;20888;-74
2022/01/20 04:41:29;;;;;;;;;8.67;8.67;;;;;21.33;45.63;99590.73;112966;1241;18613;-73
2022/01/20 04:43:55;;;;;;;;;9.00;8.00;;;;;21.32;45.88;99582.48;112954;1242;20959;-73
2022/01/20 04:46:28;;;;;;;;;6.00;6.00;;;;;21.31;45.68;99581.10;112985;1242;19714;-73
2022/01/20 04:49:03;;;;;;;;;8.00;6.67;;;;;21.32;45.79;99577.02;112959;1242;19636;-73
2022/01/20 04:57:07;;;;;;;;;8.00;6.00;;;;;21.32;45.57;99572.24;112942;1242;22970;-73
2022/01/20 04:59:33;;;;;;;;;6.00;6.00;;;;;21.32;45.74;99567.51;112966;1241;19724;-74
2022/01/20 05:01:59;;;;;;;;;7.00;6.00;;;;;21.32;45.66;99572.83;112950;1242;19240;-73
2022/01/20 05:04:25;;;;;;;;;8.00;8.00;;;;;21.32;45.84;99582.90;113007;1242;18349;-73
2022/01/20 05:06:54;;;;;;;;;9.33;5.33;;;;;21.32;45.59;99582.52;112997;1241;18736;-73
2022/01/20 05:09:21;;;;;;;;;6.00;6.00;;;;;21.32;45.54;99580.08;112992;1242;19421;-75
2022/01/20 05:11:50;;;;;;;;;7.33;7.33;;;;;21.32;45.49;99580.02;112941;1241;21594;-73
2022/01/20 05:14:16;;;;;;;;;6.00;5.00;;;;;21.31;45.56;99575.14;112956;1242;18705;-74
2022/01/20 05:16:42;;;;;;;;;10.00;8.00;;;;;21.32;45.49;99580.71;112970;1242;19330;-74
2022/01/20 05:19:08;;;;;;;;;6.00;5.00;;;;;21.31;45.58;99578.83;112979;1242;19828;-73
2022/01/20 05:21:34;;;;;;;;;4.50;4.50;;;;;21.32;45.49;99576.10;112968;1241;18673;-76
2022/01/20 05:24:00;;;;;;;;;6.00;6.00;;;;;21.31;45.58;99577.27;112987;1242;19210;-77
2022/01/20 05:26:26;;;;;;;;;8.50;6.00;;;;;21.31;45.48;99570.77;113008;1241;22919;-75
2022/01/20 05:28:52;;;;;;;;;5.67;5.00;;;;;21.31;45.42;99572.41;113057;1242;20208;-75
2022/01/20 05:31:18;;;;;;;;;6.00;6.00;;;;;21.31;45.49;99566.67;113032;1242;19170;-74
2022/01/20 05:33:44;;;;;;;;;8.00;6.00;;;;;21.31;45.45;99574.64;113055;1242;18606;-75
2022/01/20 05:36:09;;;;;;;;;5.00;5.00;;;;;21.31;45.41;99568.69;113011;1242;19073;-76
2022/01/20 05:38:35;;;;;;;;;5.00;5.00;;;;;21.31;45.40;99562.48;112996;1242;20181;-76
2022/01/20 05:41:01;;;;;;;;;5.00;5.00;;;;;21.30;45.27;99557.91;112973;1242;18313;-74
2022/01/20 05:43:27;;;;;;;;;8.50;6.00;;;;;21.30;45.42;99553.02;113083;1242;19024;-74
2022/01/20 05:45:53;;;;;;;;;8.00;6.00;;;;;21.29;45.36;99549.61;113098;1242;19476;-74
2022/01/20 05:48:31;;;;;;;;;6.00;5.00;;;;;21.29;45.48;99542.94;112998;1241;19858;-73
2022/01/20 05:50:57;;;;;;;;;9.00;8.00;;;;;21.26;45.39;99535.39;112992;1241;19366;-74
2022/01/20 05:53:23;;;;;;;;;5.00;5.00;;;;;21.29;45.41;99546.33;113041;1242;21435;-74
2022/01/20 05:55:49;;;;;;;;;5.00;5.00;;;;;21.29;45.20;99555.27;113057;1242;18234;-73
2022/01/20 05:58:15;;;;;;;;;7.00;5.50;;;;;21.29;45.34;99567.21;113050;1242;18885;-75
2022/01/20 06:00:42;;;;;;;;;5.00;5.00;;;;;21.29;45.30;99584.83;113063;1242;19097;-76
2022/01/20 06:05:52;;;;;;;;;6.00;6.00;;;;;21.30;45.33;99613.13;113052;1242;20520;-76
2022/01/20 06:08:18;;;;;;;;;5.00;5.00;;;;;21.29;45.22;99620.12;113029;1242;20017;-73
2022/01/20 06:10:44;;;;;;;;;5.00;5.00;;;;;21.29;45.47;99615.96;113021;1242;18232;-75
2022/01/20 06:13:10;;;;;;;;;5.67;5.00;;;;;21.29;45.44;99613.70;112907;1242;22752;-73
2022/01/20 06:15:36;;;;;;;;;6.00;6.00;;;;;21.29;45.43;99614.08;113056;1242;19824;-73
2022/01/20 06:18:02;;;;;;;;;6.00;6.00;;;;;21.29;45.39;99601.94;113013;1241;18576;-72
2022/01/20 06:20:28;;;;;;;;;6.00;6.00;;;;;21.28;45.55;99584.42;113058;1242;19214;-72
2022/01/20 06:22:54;;;;;;;;;5.50;5.50;;;;;21.28;45.42;99590.59;113074;1242;19261;-73
2022/01/20 06:25:20;;;;;;;;;6.00;5.50;;;;;21.30;45.48;99593.17;112974;1241;19497;-74
2022/01/20 06:27:45;;;;;;;;;5.00;5.00;;;;;21.28;46.03;99592.93;113017;1241;20125;-76
2022/01/20 06:30:11;;;;;;;;;5.00;5.00;;;;;21.33;46.12;99579.95;113027;1241;19589;-72
2022/01/20 06:32:37;;;;;;;;;5.00;4.00;;;;;21.39;45.94;99572.02;113057;1242;24256;-76
2022/01/20 06:35:03;;;;;;;;;5.00;5.00;;;;;21.42;46.50;99566.64;113014;1242;18536;-76
2022/01/20 06:37:29;;;;;;;;;4.00;4.00;;;;;21.43;46.12;99558.71;113024;1241;19215;-78
2022/01/20 06:39:55;;;;;;;;;6.00;5.00;;;;;21.45;46.41;99561.46;113004;1242;18265;-77
2022/01/20 06:42:22;;;;;;;;;5.00;5.00;;;;;21.47;46.43;99574.61;113003;1242;18550;-73
2022/01/20 06:44:48;;;;;;;;;6.00;5.00;;;;;21.47;47.12;99581.56;112984;1242;19440;-73
2022/01/20 06:47:14;;;;;;;;;5.00;5.00;;;;;21.47;47.39;99588.52;113002;1242;18662;-76
2022/01/20 06:49:40;;;;;;;;;5.00;5.00;;;;;21.49;47.25;99597.04;112960;1242;21806;-75
2022/01/20 06:52:06;;;;;;;;;6.00;5.00;;;;;21.49;47.68;99596.58;112952;1242;19186;-73
2022/01/20 06:54:32;;;;;;;;;6.00;5.50;;;;;21.46;48.29;99587.30;112945;1241;22135;-72
2022/01/20 06:56:59;;;;;;;;;5.67;5.00;;;;;21.46;48.65;99579.48;112991;1242;18795;-76
2022/01/20 06:59:25;;;;;;;;;5.00;5.00;;;;;21.46;48.60;99588.01;112965;1242;19430;-74
2022/01/20 07:01:51;;;;;;;;;6.00;6.00;;;;;21.47;48.60;99573.14;112955;1241;20116;-73
2022/01/20 07:04:17;;;;;;;;;6.00;6.00;;;;;21.49;48.20;99571.66;112944;1241;23094;-73
2022/01/20 07:06:43;;;;;;;;;5.00;5.00;;;;;21.46;48.37;99572.34;112976;1242;19234;-75
2022/01/20 07:09:10;;;;;;;;;7.00;5.00;;;;;21.47;48.22;99573.04;112974;1242;18449;-76
2022/01/20 07:11:36;;;;;;;;;5.00;5.00;;;;;21.49;48.26;99572.25;112948;1242;22860;-77
2022/01/20 07:14:02;;;;;;;;;5.50;5.00;;;;;21.51;48.17;99561.88;113002;1242;19053;-74
2022/01/20 07:16:28;;;;;;;;;8.00;8.00;;;;;21.56;48.64;99549.71;113020;1241;22082;-74
2022/01/20 07:18:54;;;;;;;;;10.67;9.00;;;;;21.60;48.67;99550.53;113019;1241;18797;-73
2022/01/20 07:21:20;;;;;;;;;8.50;8.00;;;;;21.66;48.91;99559.37;113014;1242;21046;-74
2022/01/20 07:23:46;;;;;;;;;8.33;7.33;;;;;21.69;48.96;99574.67;112996;1242;18682;-72
2022/01/20 07:26:12;;;;;;;;;7.00;6.00;;;;;21.65;48.58;99574.75;112911;1240;19443;-72
2022/01/20 07:28:38;;;;;;;;;9.00;9.00;;;;;21.66;49.05;99587.69;113037;1242;21814;-73
2022/01/20 07:31:04;;;;;;;;;9.50;9.00;;;;;21.64;48.76;99582.64;113053;1242;18937;-73
2022/01/20 07:33:30;;;;;;;;;12.00;10.00;;;;;21.57;48.70;99589.36;113044;1242;18641;-72
2022/01/20 07:35:56;;;;;;;;;10.00;10.00;;;;;21.58;48.84;99583.66;113109;1242;22266;-69
2022/01/20 07:38:22;;;;;;;;;13.00;9.00;;;;;21.60;48.17;99588.15;113103;1242;23843;-70
2022/01/20 07:40:47;;;;;;;;;12.00;10.00;;;;;21.60;48.51;99598.34;113084;1241;19785;-68
2022/01/20 07:43:13;;;;;;;;;10.00;9.00;;;;;21.54;48.50;99597.42;113013;1242;19163;-69
2022/01/20 07:45:39;;;;;;;;;18.00;14.00;;;;;21.51;48.56;99605.21;113098;1242;18384;-69
2022/01/20 07:48:05;;;;;;;;;16.00;13.00;;;;;21.51;48.41;99599.63;112989;1241;19704;-72
2022/01/20 07:50:31;;;;;;;;;16.00;13.00;;;;;21.50;48.50;99596.41;113005;1242;22316;-70
2022/01/20 07:52:57;;;;;;;;;16.00;13.50;;;;;21.50;48.59;99600.44;113045;1242;18347;-70
2022/01/20 07:55:23;;;;;;;;;16.00;13.50;;;;;21.51;48.52;99596.37;113030;1242;18848;-73
2022/01/20 07:57:49;;;;;;;;;15.00;13.50;;;;;21.52;48.32;99601.15;112945;1242;19364;-70
2022/01/20 08:00:15;;;;;;;;;15.00;15.00;;;;;21.53;48.28;99602.77;113065;1242;19873;-70
2022/01/20 08:02:41;;;;;;;;;16.67;13.33;;;;;21.54;48.06;99600.61;112925;1242;20356;-71
2022/01/20 08:05:10;;;;;;;;;13.33;13.00;;;;;21.54;48.09;99602.58;113010;1242;20088;-69
2022/01/20 08:07:36;;;;;;;;;16.00;14.00;;;;;21.52;47.85;99600.14;113028;1241;18990;-71
2022/01/20 08:10:02;;;;;;;;;17.00;14.00;;;;;21.50;48.28;99593.61;112995;1242;19642;-68
2022/01/20 08:12:28;;;;;;;;;17.00;17.00;;;;;21.52;48.32;99608.05;113012;1241;19778;-69
2022/01/20 08:14:54;;;;;;;;;16.00;13.50;;;;;21.53;47.97;99608.20;113003;1241;24297;-70
2022/01/20 08:17:19;;;;;;;;;13.00;13.00;;;;;21.44;47.08;99603.63;112902;1242;23640;-69
2022/01/20 08:19:45;;;;;;;;;13.00;10.00;;;;;21.37;46.31;99604.00;112898;1242;23226;-68
2022/01/20 08:22:11;;;;;;;;;13.50;13.00;;;;;21.37;46.27;99606.38;113096;1241;18409;-70
2022/01/20 08:24:37;;;;;;;;;13.00;12.50;;;;;21.41;46.61;99608.19;113067;1242;19183;-70
2022/01/20 08:27:03;;;;;;;;;14.00;12.67;;;;;21.47;46.57;99607.90;112988;1241;19348;-69
2022/01/20 08:29:29;;;;;;;;;17.00;14.00;;;;;21.50;46.20;99614.69;112938;1242;18393;-69
2022/01/20 08:31:55;;;;;;;;;16.00;16.00;;;;;21.53;46.35;99618.18;112823;1242;23350;-69
2022/01/20 08:34:21;;;;;;;;;16.00;14.00;;;;;21.53;46.51;99618.27;112884;1241;19820;-70
2022/01/20 08:36:47;;;;;;;;;14.00;14.00;;;;;21.55;46.53;99621.65;113013;1242;19085;-68
2022/01/20 08:41:58;;;;;;;;;14.33;13.00;;;;;21.55;46.92;99623.16;113068;1242;19379;-69
2022/01/20 08:44:23;;;;;;;;;16.67;13.00;;;;;21.53;47.11;99624.10;113065;1241;20217;-70
2022/01/20 08:46:50;;;;;;;;;14.00;13.00;;;;;21.53;47.01;99625.40;113118;1241;19340;-70
2022/01/20 08:49:16;;;;;;;;;17.67;16.00;;;;;21.52;46.87;99635.00;113115;1242;20108;-68
2022/01/20 08:51:42;;;;;;;;;13.00;12.00;;;;;21.50;46.87;99639.48;113007;1242;19046;-68
2022/01/20 08:54:08;;;;;;;;;12.00;12.00;;;;;21.47;46.47;99633.52;113000;1242;20689;-69
2022/01/20 08:56:34;;;;;;;;;15.00;14.00;;;;;21.46;46.33;99632.42;113025;1242;22947;-68
2022/01/20 08:59:00;;;;;;;;;14.00;13.00;;;;;21.46;46.12;99632.94;113080;1242;18627;-68
2022/01/20 09:01:26;;;;;;;;;13.50;13.00;;;;;21.45;46.09;99630.61;113054;1241;18589;-70
2022/01/20 09:03:52;;;;;;;;;13.00;12.50;;;;;21.48;46.72;99633.20;113038;1242;19791;-68
2022/01/20 09:06:18;;;;;;;;;13.00;13.00;;;;;21.48;46.23;99634.16;113053;1242;18904;-69
2022/01/20 09:08:44;;;;;;;;;14.00;13.00;;;;;21.46;46.41;99641.95;112952;1242;18725;-69
2022/01/20 09:11:19;;;;;;;;;16.50;13.50;;;;;21.46;46.35;99639.30;112999;1242;19271;-66
2022/01/20 09:16:29;;;;;;;;;12.33;12.00;;;;;21.49;46.49;99640.27;113022;1242;19444;-69
2022/01/20 09:18:55;;;;;;;;;14.00;13.00;;;;;21.50;46.69;99642.20;112987;1242;24439;-71
2022/01/20 09:21:23;;;;;;;;;12.00;12.00;;;;;21.51;46.89;99642.95;113009;1242;18524;-69
2022/01/20 09:23:49;;;;;;;;;16.00;13.00;;;;;21.51;46.74;99644.26;113009;1242;18649;-69
2022/01/20 09:26:15;;;;;;;;;14.67;13.00;;;;;21.49;46.67;99642.83;112972;1242;21615;-70
2022/01/20 09:28:41;;;;;;;;;17.00;14.00;;;;;21.50;46.64;99644.17;112941;1242;21546;-69
2022/01/20 09:31:08;;;;;;;;;14.00;12.00;;;;;21.51;46.72;99641.84;112920;1242;19894;-67
2022/01/20 09:33:36;;;;;;;;;14.67;12.33;;;;;21.49;46.52;99654.48;112951;1241;19384;-70
2022/01/20 09:36:02;;;;;;;;;13.00;12.00;;;;;21.50;46.50;99659.57;113032;1242;18571;-70
2022/01/20 09:38:28;;;;;;;;;15.00;13.00;;;;;21.56;47.21;99657.23;113080;1242;21884;-69
2022/01/20 09:40:54;;;;;;;;;12.00;12.00;;;;;21.58;47.01;99657.37;113087;1242;19051;-70
2022/01/20 09:43:20;;;;;;;;;9.00;9.00;;;;;21.58;47.64;99664.33;113020;1241;21596;-69
2022/01/20 09:45:46;;;;;;;;;12.50;12.50;;;;;21.59;47.70;99673.10;113026;1241;18874;-69
2022/01/20 09:48:12;;;;;;;;;12.00;10.00;;;;;21.62;47.68;99669.86;113045;1242;22077;-71
2022/01/20 09:50:38;;;;;;;;;13.00;12.50;;;;;21.63;47.74;99675.02;112878;1242;18599;-68
2022/01/20 09:53:04;;;;;;;;;12.00;10.00;;;;;21.61;47.90;99670.66;112574;1242;19305;-70
2022/01/20 09:55:32;;;;;;;;;14.00;13.00;;;;;21.59;47.62;99671.20;112757;1242;19352;-69
2022/01/20 09:57:58;;;;;;;;;13.00;13.00;;;;;21.57;46.88;99673.55;112800;1242;18708;-69
2022/01/20 10:00:24;;;;;;;;;33.00;29.00;;;;;21.56;47.31;99675.84;113206;1241;18848;-69
2022/01/20 10:02:50;;;;;;;;;43.00;33.67;;;;;21.58;47.40;99669.64;112957;1242;19191;-71
2022/01/20 10:05:16;;;;;;;;;43.00;34.50;;;;;21.60;47.69;99672.64;112944;1242;21043;-71
2022/01/20 10:07:42;;;;;;;;;66.67;51.00;;;;;21.60;47.53;99666.47;112930;1242;18774;-70
2022/01/20 10:10:08;;;;;;;;;73.33;54.67;;;;;21.61;47.48;99656.81;112979;1241;19225;-71
2022/01/20 10:12:34;;;;;;;;;74.00;55.00;;;;;21.66;47.74;99655.89;113014;1242;19050;-70
2022/01/20 10:15:00;;;;;;;;;81.33;58.00;;;;;21.67;47.46;99645.48;112971;1241;19325;-70
2022/01/20 10:17:27;;;;;;;;;80.00;59.33;;;;;21.73;47.90;99648.23;112915;1242;22272;-69
2022/01/20 10:19:53;;;;;;;;;68.67;51.33;;;;;21.75;48.71;99657.66;112844;1242;20215;-69
2022/01/20 10:22:21;;;;;;;;;63.00;46.00;;;;;21.65;47.88;99661.85;112786;1242;18955;-69
2022/01/20 10:24:47;;;;;;;;;62.67;47.67;;;;;21.59;46.93;99656.64;112726;1241;20088;-70
2022/01/20 10:27:12;;;;;;;;;53.00;43.00;;;;;21.58;47.19;99652.67;112948;1242;19697;-68
2022/01/20 10:29:38;;;;;;;;;54.00;42.00;;;;;21.57;46.73;99659.37;113058;1242;18735;-68
2022/01/20 10:32:04;;;;;;;;;52.33;38.67;;;;;21.53;46.15;99655.77;112917;1241;19410;-67
2022/01/20 10:34:31;;;;;;;;;50.00;42.00;;;;;21.45;44.66;99651.09;113020;1242;23120;-67
2022/01/20 10:36:58;;;;;;;;;47.00;36.00;;;;;21.35;43.75;99653.34;113095;1242;18783;-70
2022/01/20 10:39:24;;;;;;;;;45.00;39.33;;;;;21.33;43.59;99656.67;113100;1242;19450;-69
2022/01/20 10:41:50;;;;;;;;;40.00;35.50;;;;;21.37;43.77;99658.54;113049;1242;24352;-70
2022/01/20 10:44:16;;;;;;;;;38.00;33.00;;;;;21.39;44.56;99643.02;113064;1241;21361;-70
2022/01/20 10:46:42;;;;;;;;;44.33;37.33;;;;;21.46;44.43;99653.02;113006;1241;19982;-69
2022/01/20 10:49:08;;;;;;;;;40.00;33.00;;;;;21.51;44.34;99655.84;112894;1241;19281;-67
2022/01/20 10:51:34;;;;;;;;;43.50;34.50;;;;;21.52;44.51;99654.93;113022;1241;18608;-68
2022/01/20 10:54:00;;;;;;;;;49.00;37.50;;;;;21.52;45.00;99654.63;113021;1242;22329;-69
2022/01/20 10:56:26;;;;;;;;;56.33;44.00;;;;;21.52;45.03;99648.45;113014;1242;23423;-68
2022/01/20 10:58:52;;;;;;;;;109.00;95.33;;;;;21.30;44.50;99649.67;113026;1241;18492;-68
2022/01/20 11:01:17;;;;;;;;;128.50;113.50;;;;;20.89;43.04;99659.34;113042;1242;22489;-68
2022/01/20 11:03:43;;;;;;;;;115.00;100.67;;;;;20.56;41.79;99662.08;112999;1242;21126;-69
2022/01/20 11:06:09;;;;;;;;;111.33;100.67;;;;;20.68;41.99;99664.20;112948;1242;18549;-68
2022/01/20 11:08:38;;;;;;;;;108.00;90.00;;;;;20.90;42.20;99666.73;113001;1242;19238;-69
2022/01/20 11:11:04;;;;;;;;;103.50;90.00;;;;;21.02;42.24;99666.85;113016;1241;18957;-76
2022/01/20 11:13:30;;;;;;;;;101.67;83.33;;;;;21.18;42.82;99664.41;112996;1242;18769;-74
2022/01/20 11:15:56;;;;;;;;;101.67;85.33;;;;;21.28;42.76;99671.67;112947;1242;19141;-71
2022/01/20 11:18:21;;;;;;;;;96.33;77.67;;;;;21.35;42.52;99666.55;112981;1242;18889;-69
2022/01/20 11:20:47;;;;;;;;;95.00;71.33;;;;;21.43;42.88;99663.91;112943;1242;22937;-71
2022/01/20 11:23:13;;;;;;;;;89.67;71.00;;;;;21.45;43.15;99664.20;112977;1241;19147;-70
2022/01/20 11:25:39;;;;;;;;;88.00;68.00;;;;;21.48;43.26;99658.23;112903;1242;23159;-72
2022/01/20 11:28:07;;;;;;;;;92.67;67.67;;;;;21.51;43.23;99651.39;112935;1242;18892;-70
2022/01/20 11:30:35;;;;;;;;;88.67;65.67;;;;;21.50;43.47;99650.89;112596;1241;458160;-72
2022/01/20 11:33:00;;;;;;;;;85.00;66.50;;;;;21.48;43.82;99651.06;112969;1242;20426;-72
2022/01/20 11:35:26;;;;;;;;;82.67;65.00;;;;;21.51;44.32;99656.42;112959;1242;18564;-73
2022/01/20 11:37:52;;;;;;;;;78.00;61.33;;;;;21.53;44.50;99663.73;112965;1242;19213;-72
2022/01/20 11:40:18;;;;;;;;;80.67;61.33;;;;;21.50;44.59;99673.95;112982;1242;19685;-72
2022/01/20 11:42:44;;;;;;;;;80.00;61.67;;;;;21.50;44.71;99682.52;112979;1241;19298;-74
2022/01/20 11:45:10;;;;;;;;;77.33;60.00;;;;;21.48;44.29;99691.73;112968;1242;19225;-75
2022/01/20 11:47:36;;;;;;;;;73.33;59.33;;;;;21.48;44.22;99693.55;113011;1242;18567;-74
2022/01/20 11:50:02;;;;;;;;;69.33;56.33;;;;;21.46;44.73;99654.11;112993;1241;18854;-71
2022/01/20 11:52:28;;;;;;;;;71.33;56.67;;;;;21.48;44.59;99675.05;113018;1242;19163;-73
2022/01/20 11:54:54;;;;;;;;;72.50;57.00;;;;;21.47;44.71;99667.14;113020;1242;19992;-72
2022/01/20 11:57:20;;;;;;;;;64.00;52.00;;;;;21.47;44.71;99669.67;112890;1242;18648;-82
2022/01/20 11:59:46;;;;;;;;;67.67;54.67;;;;;21.43;44.39;99661.45;112974;1242;19204;-72